Time;durP1;ratioP1;P1;durP2;ratioP2;P2;SDS_P1;SDS_P2;PMS_P1;PMS_P2;Temp;Humidity;BMP_temperature;BMP_pressure;BME280_temperature;BME280_humidity;BME280_pressure;Samples;Min_cycle;Max_cycle;Signal;HPM_P1;HPM_P2
2023/01/01 00:01:31;;;;;;;23.92;12.45;;;13.60;99.90;;;;;;5144539;27;20108;-58
2023/01/01 00:03:58;;;;;;;29.63;14.75;;;13.60;99.90;;;;;;5144556;27;20043;-59
2023/01/01 00:06:25;;;;;;;26.35;14.48;;;13.50;99.90;;;;;;5145523;27;20035;-56
2023/01/01 00:10:26;;;;;;;26.42;15.82;;;13.50;99.90;;;;;;5135268;27;20079;-57
2023/01/01 00:11:36;;;;;;;20.90;9.80;;;13.60;99.90;;;;;;5136635;27;20040;-58
2023/01/01 00:14:02;;;;;;;16.48;10.32;;;13.60;99.90;;;;;;5137542;27;20590;-58
2023/01/01 00:16:27;;;;;;;19.77;10.05;;;13.60;99.90;;;;;;5122190;27;20532;-57
2023/01/01 00:18:53;;;;;;;32.33;11.73;;;13.60;99.90;;;;;;5139519;27;20047;-57
2023/01/01 00:21:19;;;;;;;17.40;9.43;;;13.60;99.90;;;;;;5140550;27;20069;-58
2023/01/01 00:23:44;;;;;;;20.50;9.82;;;13.60;99.90;;;;;;5139603;27;20043;-57
2023/01/01 00:26:12;;;;;;;21.20;9.90;;;13.60;99.90;;;;;;5140204;27;20065;-57
2023/01/01 00:28:38;;;;;;;23.70;10.55;;;13.60;99.90;;;;;;5140259;27;20043;-57
2023/01/01 00:31:07;;;;;;;19.25;10.65;;;13.60;99.90;;;;;;5139116;27;20094;-58
2023/01/01 00:33:33;;;;;;;23.42;10.95;;;13.60;99.90;;;;;;5140024;27;20039;-58
2023/01/01 00:36:10;;;;;;;22.55;10.73;;;13.70;99.90;;;;;;5138974;27;20118;-58
2023/01/01 00:38:35;;;;;;;20.90;11.07;;;13.60;99.90;;;;;;5121937;27;20110;-57
2023/01/01 00:41:02;;;;;;;21.55;11.32;;;13.60;99.90;;;;;;5139297;27;20077;-58
2023/01/01 00:43:28;;;;;;;19.92;11.13;;;13.60;99.90;;;;;;5139557;27;20046;-57
2023/01/01 00:45:53;;;;;;;20.25;10.70;;;13.60;99.90;;;;;;5140200;27;20035;-58
2023/01/01 00:48:20;;;;;;;23.08;11.93;;;13.60;99.90;;;;;;5139261;27;20042;-57
2023/01/01 00:50:50;;;;;;;19.50;10.68;;;13.60;99.90;;;;;;5140139;27;20035;-58
2023/01/01 00:53:17;;;;;;;23.02;11.20;;;13.70;99.90;;;;;;5139044;27;20080;-57
2023/01/01 00:55:43;;;;;;;22.42;11.15;;;13.60;99.90;;;;;;5153448;27;20079;-58
2023/01/01 00:58:09;;;;;;;23.75;13.05;;;13.60;99.90;;;;;;5159577;27;20039;-57
2023/01/01 01:00:36;;;;;;;24.15;12.80;;;13.60;99.90;;;;;;5160260;27;20046;-57
2023/01/01 01:03:02;;;;;;;27.75;14.77;;;13.50;99.90;;;;;;5160027;27;20049;-57
2023/01/01 01:05:28;;;;;;;30.92;16.45;;;13.30;99.90;;;;;;5159578;27;20058;-57
2023/01/01 01:07:54;;;;;;;28.10;16.98;;;13.20;99.90;;;;;;5160377;27;20514;-58
2023/01/01 01:10:21;;;;;;;29.88;16.85;;;13.20;99.90;;;;;;5159326;27;20047;-58
2023/01/01 01:12:47;;;;;;;28.38;18.38;;;13.10;99.90;;;;;;5141257;27;20050;-58
2023/01/01 01:15:14;;;;;;;36.50;23.30;;;13.20;99.90;;;;;;5159099;27;20042;-58
2023/01/01 01:17:40;;;;;;;35.78;23.42;;;13.20;99.90;;;;;;5140918;27;20042;-58
2023/01/01 01:20:06;;;;;;;35.75;22.27;;;13.30;99.90;;;;;;5159746;27;20137;-58
2023/01/01 01:22:33;;;;;;;35.58;23.80;;;13.20;99.90;;;;;;5159470;27;20046;-59
2023/01/01 01:25:00;;;;;;;34.50;22.67;;;13.30;99.90;;;;;;5159930;27;20043;-58
2023/01/01 01:27:25;;;;;;;35.33;24.10;;;13.30;99.90;;;;;;5159225;27;20047;-59
2023/01/01 01:29:52;;;;;;;35.35;22.38;;;13.30;99.90;;;;;;5160199;27;20168;-59
2023/01/01 01:32:18;;;;;;;39.78;26.23;;;13.30;99.90;;;;;;5158929;27;20128;-60
2023/01/01 01:34:44;;;;;;;37.58;26.75;;;13.20;99.90;;;;;;5159850;27;20082;-59
2023/01/01 01:37:10;;;;;;;47.83;32.13;;;13.10;99.90;;;;;;5159796;27;20058;-59
2023/01/01 01:39:37;;;;;;;48.67;33.85;;;12.90;99.90;;;;;;5159444;27;20038;-60
2023/01/01 01:42:03;;;;;;;52.28;37.13;;;12.60;99.90;;;;;;5159524;27;20066;-59
2023/01/01 01:44:48;;;;;;;54.55;37.10;;;12.50;99.90;;;;;;5158986;27;20045;-60
2023/01/01 01:47:21;;;;;;;54.75;39.30;;;12.40;99.90;;;;;;5159891;27;20050;-60
2023/01/01 01:49:51;;;;;;;57.50;39.90;;;12.30;99.90;;;;;;5159267;27;20046;-61
2023/01/01 01:52:17;;;;;;;57.08;41.53;;;12.20;99.90;;;;;;5159466;27;20102;-61
2023/01/01 01:54:42;;;;;;;58.80;41.35;;;12.20;99.90;;;;;;5154613;27;20075;-63
2023/01/01 01:57:11;;;;;;;54.45;40.95;;;11.90;99.90;;;;;;5137961;28;20039;-63
2023/01/01 01:59:42;;;;;;;58.70;42.90;;;12.10;99.90;;;;;;5138607;28;20050;-63
2023/01/01 02:02:22;;;;;;;54.88;41.33;;;12.10;99.90;;;;;;5138020;28;20055;-62
2023/01/01 02:04:48;;;;;;;59.60;45.58;;;11.90;99.90;;;;;;5138686;28;20493;-62
2023/01/01 02:07:14;;;;;;;59.97;43.20;;;12.10;99.90;;;;;;5138588;28;20053;-61
2023/01/01 02:09:41;;;;;;;55.80;41.50;;;11.90;99.90;;;;;;5138081;28;20112;-61
2023/01/01 02:12:06;;;;;;;60.70;42.63;;;11.90;99.90;;;;;;5119895;28;20568;-62
2023/01/01 02:14:32;;;;;;;63.15;43.60;;;12.00;99.90;;;;;;5138350;28;20043;-61
2023/01/01 02:17:15;;;;;;;58.67;40.90;;;11.90;99.90;;;;;;5120044;28;20031;-62
2023/01/01 02:19:55;;;;;;;57.47;42.42;;;12.00;99.90;;;;;;5119593;28;20058;-61
2023/01/01 02:22:49;;;;;;;56.13;41.33;;;11.80;99.90;;;;;;5138192;27;20051;-60
2023/01/01 02:25:51;;;;;;;54.38;38.05;;;11.80;99.90;;;;;;5142348;27;20050;-60
2023/01/01 02:28:42;;;;;;;58.13;40.97;;;11.90;99.90;;;;;;5141974;27;20050;-61
2023/01/01 02:31:11;;;;;;;59.95;41.85;;;12.10;99.90;;;;;;5106513;27;20073;-61
2023/01/01 02:33:40;;;;;;;66.53;44.42;;;11.90;99.90;;;;;;5142366;27;20057;-60
2023/01/01 02:36:07;;;;;;;60.42;41.75;;;12.00;99.90;;;;;;5141672;27;20099;-60
2023/01/01 02:38:38;;;;;;;64.45;44.17;;;11.90;99.90;;;;;;5142200;27;20055;-61
2023/01/01 02:41:09;;;;;;;64.50;44.20;;;11.90;99.90;;;;;;5142022;27;20046;-61
2023/01/01 02:43:36;;;;;;;61.03;44.75;;;11.90;99.90;;;;;;5141674;27;20102;-62
2023/01/01 02:46:07;;;;;;;59.20;44.35;;;11.90;99.90;;;;;;5142167;27;20046;-62
2023/01/01 02:48:47;;;;;;;62.50;43.50;;;11.70;99.90;;;;;;5141669;27;20047;-62
2023/01/01 02:51:13;;;;;;;63.15;45.03;;;11.90;99.90;;;;;;5141847;27;20112;-62
2023/01/01 02:53:50;;;;;;;60.50;43.78;;;11.70;99.90;;;;;;5141665;27;20043;-62
2023/01/01 02:56:35;;;;;;;57.60;41.63;;;11.60;99.90;;;;;;5159709;27;20070;-62
2023/01/01 03:02:51;;;;;;;59.20;41.35;;;11.70;99.90;;;;;;5162024;27;20050;-64
2023/01/01 03:08:57;;;;;;;57.78;39.67;;;11.30;99.90;;;;;;5162649;27;20050;-62
2023/01/01 03:11:28;;;;;;;55.17;38.25;;;11.60;99.90;;;;;;5150529;27;20072;-61
2023/01/01 03:14:26;;;;;;;50.88;35.47;;;11.60;99.90;;;;;;5161769;27;20046;-61
2023/01/01 03:16:59;;;;;;;54.55;33.00;;;11.50;99.90;;;;;;5087496;27;20108;-61
2023/01/01 03:19:28;;;;;;;46.08;31.73;;;11.50;99.90;;;;;;5161721;27;20088;-60
2023/01/01 03:22:03;;;;;;;45.53;30.05;;;11.60;99.90;;;;;;5161994;27;20061;-61
2023/01/01 03:24:52;;;;;;;41.80;26.08;;;11.40;99.90;;;;;;5162529;27;20046;-60
2023/01/01 03:27:29;;;;;;;32.67;22.33;;;11.60;99.90;;;;;;5161650;27;20042;-60
2023/01/01 03:29:58;;;;;;;30.77;19.27;;;11.40;99.90;;;;;;5162039;27;20051;-60
2023/01/01 03:32:59;;;;;;;29.55;18.05;;;11.30;99.90;;;;;;5161783;27;20068;-61
2023/01/01 03:35:19;;;;;;;25.30;14.27;;;11.30;99.90;;;;;;5160978;27;20083;-60
2023/01/01 03:37:48;;;;;;;18.77;12.45;;;11.30;99.90;;;;;;5162127;27;20027;-60
2023/01/01 03:40:16;;;;;;;21.67;11.98;;;11.60;99.90;;;;;;5161224;27;20050;-60
2023/01/01 03:42:49;;;;;;;19.20;10.55;;;11.50;99.90;;;;;;5161716;27;20034;-60
2023/01/01 03:45:36;;;;;;;17.45;9.35;;;11.30;99.90;;;;;;5161685;27;20039;-59
2023/01/01 03:48:04;;;;;;;16.67;8.40;;;11.30;99.90;;;;;;5159124;27;20518;-59
2023/01/01 03:50:54;;;;;;;17.88;8.23;;;11.40;99.90;;;;;;5162146;27;20053;-59
2023/01/01 03:53:40;;;;;;;20.35;9.60;;;11.20;99.90;;;;;;5160751;27;20077;-59
2023/01/01 03:56:22;;;;;;;23.40;9.82;;;11.30;99.90;;;;;;5144491;27;20653;-60
2023/01/01 03:58:58;;;;;;;16.33;9.68;;;11.40;99.90;;;;;;5140842;27;20040;-60
2023/01/01 04:01:31;;;;;;;19.77;11.00;;;11.40;99.90;;;;;;5139837;27;20046;-60
2023/01/01 04:03:57;;;;;;;15.75;8.55;;;11.00;99.90;;;;;;5140897;27;20035;-59
2023/01/01 04:06:23;;;;;;;23.15;9.93;;;11.20;99.90;;;;;;5140093;27;20078;-59
2023/01/01 04:08:55;;;;;;;21.58;9.10;;;11.10;99.90;;;;;;5140784;27;20047;-59
2023/01/01 04:14:09;;;;;;;18.05;7.22;;;11.10;99.90;;;;;;5139464;27;20061;-59
2023/01/01 04:16:35;;;;;;;18.08;7.53;;;11.10;99.90;;;;;;5140512;27;20142;-60
2023/01/01 04:19:00;;;;;;;16.40;8.27;;;11.20;99.90;;;;;;5139353;27;20051;-59
2023/01/01 04:21:26;;;;;;;22.67;7.70;;;11.20;99.90;;;;;;5140677;27;20047;-59
2023/01/01 04:23:52;;;;;;;14.40;6.88;;;11.10;99.90;;;;;;5140093;27;20457;-58
2023/01/01 04:26:17;;;;;;;12.95;5.47;;;11.30;99.90;;;;;;5140235;27;20470;-60
2023/01/01 04:28:43;;;;;;;11.90;4.30;;;11.30;99.90;;;;;;5159248;27;20519;-59
2023/01/01 04:31:10;;;;;;;15.25;3.92;;;11.30;99.90;;;;;;5160259;27;20038;-59
2023/01/01 04:33:36;;;;;;;12.20;3.60;;;11.30;99.90;;;;;;5160987;27;20050;-59
2023/01/01 04:36:07;;;;;;;12.63;3.50;;;11.50;99.90;;;;;;5160176;27;20038;-60
2023/01/01 04:38:33;;;;;;;12.50;3.53;;;11.60;99.90;;;;;;5161194;27;20042;-59
2023/01/01 04:41:00;;;;;;;11.80;3.30;;;11.50;99.90;;;;;;5160459;27;20047;-60
2023/01/01 04:43:26;;;;;;;14.98;3.03;;;11.60;99.90;;;;;;5160268;27;20054;-59
2023/01/01 04:46:00;;;;;;;14.32;3.88;;;11.50;99.90;;;;;;5160600;27;20038;-60
2023/01/01 04:48:26;;;;;;;13.90;3.35;;;11.60;99.90;;;;;;5160123;27;20042;-59
2023/01/01 04:51:03;;;;;;;13.40;3.58;;;11.50;99.90;;;;;;5160991;27;20051;-59
2023/01/01 04:53:32;;;;;;;13.50;4.20;;;11.40;99.90;;;;;;5159881;27;20183;-59
2023/01/01 04:56:08;;;;;;;15.50;3.85;;;11.60;99.90;;;;;;5145168;27;20101;-59
2023/01/01 04:58:35;;;;;;;18.33;4.43;;;11.50;99.90;;;;;;5139455;27;20118;-57
2023/01/01 05:01:01;;;;;;;18.85;4.20;;;11.60;99.90;;;;;;5139089;27;20047;-59
2023/01/01 05:03:27;;;;;;;19.30;5.05;;;11.70;99.90;;;;;;5139921;27;20041;-59
2023/01/01 05:06:05;;;;;;;18.90;4.88;;;11.60;99.90;;;;;;5139038;27;20134;-58
2023/01/01 05:08:32;;;;;;;17.75;4.65;;;11.70;99.90;;;;;;5139652;27;20043;-59
2023/01/01 05:11:05;;;;;;;18.33;4.18;;;11.70;99.90;;;;;;5138926;27;20043;-59
2023/01/01 05:13:30;;;;;;;;;;;11.40;99.90;;;;;;5139730;27;20593;-59
2023/01/01 05:15:56;;;;;;;18.92;4.53;;;11.60;99.90;;;;;;5139544;27;19919;-59
2023/01/01 05:18:22;;;;;;;15.35;4.13;;;11.60;99.90;;;;;;5120105;27;20059;-59
2023/01/01 05:20:48;;;;;;;16.38;3.47;;;11.50;99.90;;;;;;5139656;27;20051;-59
2023/01/01 05:23:17;;;;;;;14.32;3.65;;;11.50;99.90;;;;;;5138314;27;20039;-59
2023/01/01 05:25:43;;;;;;;9.50;3.03;;;11.50;99.90;;;;;;5139611;27;20051;-59
2023/01/01 05:28:09;;;;;;;13.90;3.22;;;11.50;99.90;;;;;;5138859;27;20031;-59
2023/01/01 05:30:38;;;;;;;13.25;2.92;;;11.40;99.90;;;;;;5139213;27;20047;-60
2023/01/01 05:33:04;;;;;;;15.05;3.13;;;11.60;99.90;;;;;;5139196;27;20051;-60
2023/01/01 05:35:29;;;;;;;12.27;2.80;;;11.60;99.90;;;;;;5138672;27;20511;-59
2023/01/01 05:37:55;;;;;;;13.25;2.70;;;11.60;99.90;;;;;;5139022;27;20122;-59
2023/01/01 05:40:21;;;;;;;14.45;3.40;;;11.60;99.90;;;;;;5120028;27;20051;-58
2023/01/01 05:42:47;;;;;;;9.57;2.58;;;11.70;99.90;;;;;;5139098;27;20043;-60
2023/01/01 05:45:13;;;;;;;12.35;3.22;;;11.70;99.90;;;;;;5120117;28;20039;-59
2023/01/01 05:47:38;;;;;;;12.18;2.60;;;11.60;99.90;;;;;;5138805;27;20064;-58
2023/01/01 05:50:05;;;;;;;14.23;3.00;;;11.60;99.90;;;;;;5138679;27;20050;-59
2023/01/01 05:52:30;;;;;;;10.20;2.33;;;11.60;99.90;;;;;;5138353;28;20046;-58
2023/01/01 05:54:57;;;;;;;9.88;2.88;;;11.60;99.90;;;;;;5138587;28;20071;-58
2023/01/01 05:57:23;;;;;;;14.38;2.60;;;11.60;99.90;;;;;;5138463;27;20079;-58
2023/01/01 05:59:49;;;;;;;12.20;2.50;;;11.70;99.90;;;;;;5142040;27;20039;-58
2023/01/01 06:02:14;;;;;;;11.35;2.97;;;11.60;99.90;;;;;;5142563;27;20057;-58
2023/01/01 06:04:40;;;;;;;10.18;2.33;;;11.60;99.90;;;;;;5143138;27;20565;-58
2023/01/01 06:07:05;;;;;;;10.75;2.25;;;11.50;99.90;;;;;;5142725;27;20035;-58
2023/01/01 06:09:31;;;;;;;12.68;2.67;;;11.40;99.90;;;;;;5142575;27;20054;-59
2023/01/01 06:11:57;;;;;;;17.08;2.80;;;11.40;99.90;;;;;;5142980;27;20085;-58
2023/01/01 06:14:22;;;;;;;10.57;2.03;;;11.50;99.90;;;;;;5142267;27;20043;-58
2023/01/01 06:16:48;;;;;;;13.10;2.28;;;11.40;99.90;;;;;;5124559;27;20061;-58
2023/01/01 06:19:14;;;;;;;13.65;3.22;;;11.40;99.90;;;;;;5142005;27;20047;-58
2023/01/01 06:21:39;;;;;;;10.48;2.38;;;11.40;99.90;;;;;;5142721;27;20099;-57
2023/01/01 06:24:05;;;;;;;11.98;3.15;;;11.40;99.90;;;;;;5142361;27;20040;-57
2023/01/01 06:26:32;;;;;;;10.65;2.22;;;11.30;99.90;;;;;;5142338;27;20047;-58
2023/01/01 06:28:59;;;;;;;9.88;2.22;;;11.40;99.90;;;;;;5142594;27;20064;-57
2023/01/01 06:31:26;;;;;;;13.38;2.08;;;11.30;99.90;;;;;;5141986;27;20039;-58
2023/01/01 06:33:51;;;;;;;13.65;3.10;;;11.30;99.90;;;;;;5142512;27;20124;-58
2023/01/01 06:36:19;;;;;;;11.63;3.38;;;11.30;99.90;;;;;;5123159;27;20486;-58
2023/01/01 06:38:47;;;;;;;19.13;3.42;;;11.20;99.90;;;;;;5142387;27;20208;-59
2023/01/01 06:41:15;;;;;;;12.00;2.40;;;11.30;99.90;;;;;;5142094;27;20043;-58
2023/01/01 06:43:41;;;;;;;12.02;2.40;;;11.20;99.90;;;;;;5141919;27;20035;-59
2023/01/01 06:46:15;;;;;;;13.60;2.45;;;11.20;99.90;;;;;;5142546;27;20164;-59
2023/01/01 06:48:41;;;;;;;12.13;2.30;;;11.20;99.90;;;;;;5141828;27;20063;-59
2023/01/01 06:51:18;;;;;;;15.48;2.45;;;11.20;99.90;;;;;;5142262;27;20058;-59
2023/01/01 06:53:45;;;;;;;14.88;2.75;;;11.20;99.90;;;;;;5141752;27;20043;-59
2023/01/01 06:56:11;;;;;;;16.42;2.72;;;11.20;99.90;;;;;;5159051;27;20042;-58
2023/01/01 06:58:37;;;;;;;14.55;2.30;;;11.20;99.90;;;;;;5163002;27;20034;-58
2023/01/01 07:01:09;;;;;;;13.75;2.58;;;11.10;99.90;;;;;;5162089;27;20041;-58
2023/01/01 07:03:36;;;;;;;12.50;2.25;;;11.10;99.90;;;;;;5162849;27;20143;-58
2023/01/01 07:06:02;;;;;;;18.88;3.05;;;11.10;99.90;;;;;;5162282;27;20057;-59
2023/01/01 07:08:27;;;;;;;12.38;2.60;;;11.10;99.90;;;;;;5163016;27;20094;-58
2023/01/01 07:10:56;;;;;;;18.00;3.65;;;11.10;99.90;;;;;;5161792;27;20035;-59
2023/01/01 07:13:23;;;;;;;12.00;2.05;;;11.10;99.90;;;;;;5161917;27;20050;-58
2023/01/01 07:15:48;;;;;;;12.93;2.30;;;11.00;99.90;;;;;;5162768;27;20042;-58
2023/01/01 07:18:14;;;;;;;11.18;2.15;;;11.00;99.90;;;;;;5161503;27;20061;-58
2023/01/01 07:20:40;;;;;;;15.95;2.58;;;10.90;99.90;;;;;;5162564;27;20065;-59
2023/01/01 07:23:05;;;;;;;14.60;2.42;;;10.90;99.90;;;;;;5162097;27;20046;-58
2023/01/01 07:25:31;;;;;;;14.93;2.90;;;10.90;99.90;;;;;;5162334;27;20043;-58
2023/01/01 07:27:57;;;;;;;13.75;2.28;;;10.80;99.90;;;;;;5143435;27;20070;-58
2023/01/01 07:30:22;;;;;;;17.27;2.25;;;10.90;99.90;;;;;;5161801;27;20038;-59
2023/01/01 07:32:54;;;;;;;19.70;3.40;;;10.80;99.90;;;;;;5162521;27;20175;-58
2023/01/01 07:35:20;;;;;;;13.48;2.92;;;10.90;99.90;;;;;;5161448;27;20043;-58
2023/01/01 07:37:45;;;;;;;20.33;3.15;;;10.80;99.90;;;;;;5162565;27;20129;-58
2023/01/01 07:40:11;;;;;;;19.15;3.15;;;10.80;99.90;;;;;;5161361;27;20043;-58
2023/01/01 07:42:36;;;;;;;11.63;2.72;;;10.70;99.90;;;;;;5161831;27;20058;-58
2023/01/01 07:45:02;;;;;;;16.85;2.75;;;10.80;99.90;;;;;;5161461;27;20030;-58
2023/01/01 07:47:28;;;;;;;16.52;2.75;;;10.70;99.90;;;;;;5161776;27;20039;-58
2023/01/01 07:49:54;;;;;;;17.60;3.35;;;10.80;99.90;;;;;;5162102;27;20479;-58
2023/01/01 07:52:19;;;;;;;16.27;2.70;;;10.70;99.90;;;;;;5161376;27;20428;-59
2023/01/01 07:54:45;;;;;;;22.42;3.75;;;10.60;99.90;;;;;;5156943;27;20079;-58
2023/01/01 07:57:11;;;;;;;16.55;2.28;;;10.70;99.90;;;;;;5121718;27;20046;-58
2023/01/01 07:59:37;;;;;;;17.25;3.95;;;10.60;99.90;;;;;;5122560;27;20060;-58
2023/01/01 08:02:03;;;;;;;19.00;3.28;;;10.60;99.90;;;;;;5137846;27;20065;-57
2023/01/01 08:04:28;;;;;;;19.27;3.35;;;10.70;99.90;;;;;;5137323;27;20071;-58
2023/01/01 08:06:57;;;;;;;20.70;3.40;;;10.60;99.90;;;;;;5137454;27;20074;-58
2023/01/01 08:09:22;;;;;;;23.20;3.15;;;10.60;99.90;;;;;;5135926;27;20047;-58
2023/01/01 08:11:50;;;;;;;17.35;3.05;;;10.70;99.90;;;;;;5136652;27;20043;-58
2023/01/01 08:14:16;;;;;;;17.50;3.15;;;10.80;99.90;;;;;;5135351;27;20047;-58
2023/01/01 08:16:41;;;;;;;22.27;3.92;;;10.60;99.90;;;;;;5136882;27;20590;-58
2023/01/01 08:19:07;;;;;;;20.20;4.05;;;10.70;99.90;;;;;;5135856;27;20055;-58
2023/01/01 08:21:33;;;;;;;17.38;3.42;;;10.70;99.90;;;;;;5135688;27;20043;-58
2023/01/01 08:23:58;;;;;;;22.13;3.38;;;10.60;99.90;;;;;;5136720;27;20418;-59
2023/01/01 08:26:33;;;;;;;17.33;2.85;;;10.60;99.90;;;;;;5135396;27;20039;-58
2023/01/01 08:29:01;;;;;;;17.08;3.00;;;10.70;99.90;;;;;;5135274;27;20055;-58
2023/01/01 08:31:27;;;;;;;20.48;3.72;;;10.70;99.90;;;;;;5116851;27;20049;-59
2023/01/01 08:33:53;;;;;;;20.58;3.25;;;10.80;99.90;;;;;;5136487;27;20126;-58
2023/01/01 08:36:19;;;;;;;17.17;3.72;;;10.70;99.90;;;;;;5135372;27;20399;-59
2023/01/01 08:38:45;;;;;;;18.15;3.47;;;10.70;99.90;;;;;;5136015;27;20047;-58
2023/01/01 08:41:11;;;;;;;16.95;3.03;;;10.70;99.90;;;;;;5135797;27;20082;-58
2023/01/01 08:43:36;;;;;;;20.75;3.20;;;10.70;99.90;;;;;;5135442;27;20039;-59
2023/01/01 08:46:02;;;;;;;21.30;3.58;;;10.70;99.90;;;;;;5136361;27;20070;-58
2023/01/01 08:48:28;;;;;;;24.35;4.72;;;10.70;99.90;;;;;;5135241;27;20043;-59
2023/01/01 08:51:00;;;;;;;18.50;3.63;;;10.70;99.90;;;;;;5135811;27;20050;-59
2023/01/01 08:53:28;;;;;;;24.25;4.40;;;10.80;99.90;;;;;;5135200;27;20546;-59
2023/01/01 08:56:00;;;;;;;25.13;3.53;;;10.70;99.90;;;;;;5150993;27;20039;-58
2023/01/01 08:58:26;;;;;;;25.00;3.50;;;10.70;99.90;;;;;;5137966;27;20047;-59
2023/01/01 09:00:53;;;;;;;23.80;3.67;;;10.70;99.90;;;;;;5156004;27;20058;-59
2023/01/01 09:03:19;;;;;;;29.45;4.25;;;10.70;99.90;;;;;;5138116;27;20046;-59
2023/01/01 09:05:44;;;;;;;21.70;4.13;;;10.70;99.90;;;;;;5149861;27;20571;-58
2023/01/01 09:08:11;;;;;;;24.85;4.60;;;10.80;99.90;;;;;;5144930;27;20035;-58
2023/01/01 09:10:37;;;;;;;20.58;3.50;;;10.70;99.90;;;;;;5144589;27;20039;-58
2023/01/01 09:13:03;;;;;;;25.75;3.08;;;10.80;99.90;;;;;;5143693;27;20491;-58
2023/01/01 09:15:29;;;;;;;24.20;3.80;;;10.70;99.90;;;;;;5145241;27;20610;-59
2023/01/01 09:17:55;;;;;;;19.88;3.58;;;10.80;99.90;;;;;;5143376;27;20410;-57
2023/01/01 09:20:21;;;;;;;24.52;3.75;;;10.80;99.90;;;;;;5136759;27;20047;-60
2023/01/01 09:22:46;;;;;;;24.15;3.88;;;10.70;99.90;;;;;;5134855;27;20076;-58
2023/01/01 09:25:12;;;;;;;19.70;4.07;;;10.70;99.90;;;;;;5135487;27;20511;-57
2023/01/01 09:27:38;;;;;;;20.98;3.20;;;10.70;99.90;;;;;;5134194;27;20089;-58
2023/01/01 09:30:04;;;;;;;26.42;3.22;;;10.80;99.90;;;;;;5135477;27;20055;-58
2023/01/01 09:32:30;;;;;;;25.85;4.75;;;10.80;99.90;;;;;;5116297;27;20047;-57
2023/01/01 09:34:56;;;;;;;23.58;3.60;;;10.80;99.90;;;;;;5134751;27;20062;-58
2023/01/01 09:37:22;;;;;;;24.40;4.47;;;10.80;99.90;;;;;;5135386;27;20043;-57
2023/01/01 09:39:49;;;;;;;21.77;3.50;;;10.80;99.90;;;;;;5134215;27;20527;-57
2023/01/01 09:42:18;;;;;;;21.92;5.28;;;10.60;99.90;;;;;;5135147;27;20481;-57
2023/01/01 09:45:01;;;;;;;23.23;4.18;;;10.70;99.90;;;;;;5116043;27;20047;-58
2023/01/01 09:47:41;;;;;;;18.52;3.50;;;10.80;99.90;;;;;;5134815;27;20691;-58
2023/01/01 09:50:30;;;;;;;23.45;3.45;;;10.80;99.90;;;;;;5134726;27;20575;-58
2023/01/01 09:52:59;;;;;;;23.85;4.00;;;10.80;99.90;;;;;;5134734;27;20035;-58
2023/01/01 09:55:27;;;;;;;32.60;4.88;;;10.80;99.90;;;;;;5135121;28;20045;-57
2023/01/01 09:57:54;;;;;;;21.08;3.70;;;10.80;99.90;;;;;;5134369;28;20058;-58
2023/01/01 10:00:20;;;;;;;19.92;3.20;;;10.80;99.90;;;;;;5134865;28;20062;-59
2023/01/01 10:02:57;;;;;;;24.23;3.53;;;10.90;99.90;;;;;;5134599;28;20457;-58
2023/01/01 10:05:44;;;;;;;19.50;3.97;;;10.90;99.90;;;;;;5134331;28;20035;-58
2023/01/01 10:08:28;;;;;;;21.92;4.30;;;11.00;99.90;;;;;;5134835;28;20035;-57
2023/01/01 10:11:36;;;;;;;26.77;4.07;;;11.00;99.90;;;;;;5116015;28;20096;-58
2023/01/01 10:14:17;;;;;;;25.48;5.45;;;11.00;99.90;;;;;;5075749;28;20062;-58
2023/01/01 10:16:47;;;;;;;24.13;4.32;;;11.10;99.90;;;;;;5135105;28;20043;-58
2023/01/01 10:19:35;;;;;;;22.00;3.58;;;11.10;99.90;;;;;;5133779;28;20070;-58
2023/01/01 10:22:10;;;;;;;25.17;4.57;;;11.10;99.90;;;;;;5142281;27;20051;-58
2023/01/01 10:24:59;;;;;;;20.92;3.42;;;11.10;99.90;;;;;;5143700;27;20058;-57
2023/01/01 10:27:40;;;;;;;21.70;4.88;;;11.10;99.90;;;;;;5114916;28;20039;-58
2023/01/01 10:30:20;;;;;;;23.85;3.38;;;11.20;99.90;;;;;;5144005;27;20053;-58
2023/01/01 10:32:48;;;;;;;22.63;3.85;;;11.10;99.90;;;;;;5139817;27;20394;-58
2023/01/01 10:35:17;;;;;;;17.92;2.75;;;11.10;99.90;;;;;;5123744;28;20057;-58
2023/01/01 10:37:44;;;;;;;20.48;3.15;;;11.00;99.90;;;;;;5101733;28;20571;-58
2023/01/01 10:40:15;;;;;;;18.48;3.50;;;11.10;99.90;;;;;;5136727;28;20046;-58
2023/01/01 10:42:40;;;;;;;23.75;3.40;;;11.00;99.90;;;;;;5138196;28;20043;-57
2023/01/01 10:45:13;;;;;;;17.73;2.90;;;11.00;99.90;;;;;;5138453;27;20047;-57
2023/01/01 10:47:38;;;;;;;23.65;3.83;;;11.00;99.90;;;;;;5122971;27;20051;-58
2023/01/01 10:50:08;;;;;;;18.92;3.63;;;10.90;99.90;;;;;;5142419;27;20121;-57
2023/01/01 10:52:39;;;;;;;21.20;2.97;;;11.00;99.90;;;;;;5141394;27;20084;-57
2023/01/01 10:55:17;;;;;;;17.15;2.90;;;11.00;99.90;;;;;;5142376;27;20035;-57
2023/01/01 10:57:43;;;;;;;27.30;3.78;;;11.00;99.90;;;;;;5122850;27;20088;-57
2023/01/01 11:00:26;;;;;;;20.52;3.22;;;11.10;99.90;;;;;;5142227;27;20051;-58
2023/01/01 11:03:11;;;;;;;17.50;3.75;;;11.10;99.90;;;;;;5142179;27;20035;-58
2023/01/01 11:05:37;;;;;;;16.38;2.67;;;11.10;99.90;;;;;;5141296;27;20689;-57
2023/01/01 11:08:03;;;;;;;15.98;2.55;;;11.10;99.90;;;;;;5142142;27;20063;-57
2023/01/01 11:10:30;;;;;;;20.95;3.70;;;11.10;99.90;;;;;;5141404;27;20035;-57
2023/01/01 11:12:56;;;;;;;17.13;4.35;;;11.10;99.90;;;;;;5123113;27;20068;-58
2023/01/01 11:15:33;;;;;;;17.70;3.35;;;11.10;99.90;;;;;;5123254;27;20034;-57
2023/01/01 11:18:13;;;;;;;16.52;3.05;;;11.20;99.90;;;;;;5141442;27;20071;-57
2023/01/01 11:20:40;;;;;;;18.73;2.95;;;11.10;99.90;;;;;;5141646;27;20051;-58
2023/01/01 11:23:30;;;;;;;20.10;3.33;;;11.10;99.90;;;;;;5141055;27;20098;-58
2023/01/01 11:26:12;;;;;;;12.27;2.65;;;11.20;99.90;;;;;;5141135;27;20066;-58
2023/01/01 11:28:39;;;;;;;11.60;2.70;;;11.20;99.90;;;;;;5141526;27;20078;-58
2023/01/01 11:31:17;;;;;;;19.00;3.38;;;11.20;99.90;;;;;;5140646;27;20045;-57
2023/01/01 11:33:49;;;;;;;16.83;2.88;;;11.20;99.90;;;;;;5122856;27;20289;-58
2023/01/01 11:36:25;;;;;;;;;;;11.20;99.90;;;;;;5141327;27;20047;-58
2023/01/01 11:39:11;;;;;;;19.85;2.80;;;11.20;99.90;;;;;;5141413;27;19919;-57
2023/01/01 11:41:49;;;;;;;19.70;3.58;;;11.20;99.90;;;;;;5141782;27;20079;-58
2023/01/01 11:44:39;;;;;;;15.43;2.65;;;11.10;99.90;;;;;;5122199;27;20050;-58
2023/01/01 11:47:06;;;;;;;18.20;3.08;;;11.20;99.90;;;;;;5141554;27;20135;-58
2023/01/01 11:49:33;;;;;;;21.30;2.90;;;11.10;99.90;;;;;;5122409;27;20039;-59
2023/01/01 11:51:59;;;;;;;21.67;3.83;;;11.10;99.90;;;;;;5140489;27;20043;-59
2023/01/01 11:54:36;;;;;;;25.40;5.18;;;11.20;99.90;;;;;;5140607;27;20238;-58
2023/01/01 11:57:16;;;;;;;15.60;2.80;;;11.20;99.90;;;;;;5140282;27;20039;-58
2023/01/01 11:59:56;;;;;;;19.35;4.07;;;11.30;99.90;;;;;;5140451;27;20035;-58
2023/01/01 12:02:37;;;;;;;17.23;2.95;;;11.30;99.90;;;;;;5140455;27;20494;-58
2023/01/01 12:05:45;;;;;;;16.30;3.35;;;11.30;99.90;;;;;;5139512;27;20502;-58
2023/01/01 12:08:15;;;;;;;17.05;2.67;;;11.30;99.90;;;;;;5119241;27;20523;-58
2023/01/01 12:10:53;;;;;;;17.17;2.92;;;11.40;99.90;;;;;;5148408;27;20510;-58
2023/01/01 12:13:27;;;;;;;17.70;3.65;;;11.40;99.90;;;;;;5148799;27;20069;-58
2023/01/01 12:16:08;;;;;;;16.30;3.00;;;11.40;99.90;;;;;;5150450;27;20031;-58
2023/01/01 12:18:36;;;;;;;20.10;3.33;;;11.40;99.90;;;;;;5149914;27;20042;-57
2023/01/01 12:21:23;;;;;;;16.60;2.85;;;11.40;99.90;;;;;;5149085;27;20118;-59
2023/01/01 12:23:49;;;;;;;18.15;3.10;;;11.40;99.90;;;;;;5133470;27;20447;-58
2023/01/01 12:26:27;;;;;;;19.70;4.07;;;11.40;99.90;;;;;;5150039;27;20035;-58
2023/01/01 12:28:58;;;;;;;17.83;3.10;;;11.40;99.90;;;;;;5150519;27;20065;-58
2023/01/01 12:32:07;;;;;;;17.10;2.88;;;11.40;99.90;;;;;;5155978;27;20046;-58
2023/01/01 12:34:44;;;;;;;15.52;2.85;;;11.50;99.90;;;;;;5138188;27;20078;-57
2023/01/01 12:37:24;;;;;;;15.95;3.03;;;11.50;99.90;;;;;;5161455;27;20047;-59
2023/01/01 12:40:20;;;;;;;16.70;3.15;;;11.60;99.90;;;;;;5160145;27;20090;-58
2023/01/01 12:43:06;;;;;;;18.98;3.25;;;11.60;99.90;;;;;;5142193;27;20043;-58
2023/01/01 12:46:09;;;;;;;21.05;4.22;;;11.60;99.90;;;;;;5160572;27;20118;-59
2023/01/01 12:49:11;;;;;;;16.77;2.30;;;11.60;99.90;;;;;;5160200;27;20485;-58
2023/01/01 12:51:46;;;;;;;;;;;11.60;99.90;;;;;;5161088;27;20508;-57
2023/01/01 12:54:42;;;;;;;15.15;2.95;;;11.60;99.90;;;;;;5159975;27;19919;-58
2023/01/01 12:57:31;;;;;;;18.10;3.10;;;11.50;99.90;;;;;;5139020;27;20054;-58
2023/01/01 13:00:00;;;;;;;19.55;2.95;;;11.60;99.90;;;;;;5139914;27;20117;-58
2023/01/01 13:02:28;;;;;;;18.70;2.72;;;11.60;99.90;;;;;;5139579;27;20039;-58
2023/01/01 13:05:01;;;;;;;19.10;3.17;;;11.50;99.90;;;;;;5139380;27;20043;-58